Time;durP1;ratioP1;P1;durP2;ratioP2;P2;SDS_P1;SDS_P2;PMS_P1;PMS_P2;Temp;Humidity;BMP_temperature;BMP_pressure;BME280_temperature;BME280_humidity;BME280_pressure;Samples;Min_cycle;Max_cycle;Signal;HPM_P1;HPM_P2
2022/09/28 00:01:17;;;;;;;6.40;4.05;;;10.20;87.80;;;;;;5098865;28;20047;-84
2022/09/28 00:03:44;;;;;;;6.97;3.95;;;10.10;87.80;;;;;;5080312;28;20032;-84
2022/09/28 00:06:13;;;;;;;8.05;4.00;;;10.10;88.80;;;;;;5063321;28;20028;-84
2022/09/28 00:08:39;;;;;;;8.30;4.13;;;10.10;87.80;;;;;;5079867;28;20016;-84
2022/09/28 00:11:08;;;;;;;7.45;3.92;;;10.10;87.80;;;;;;5063874;28;20052;-84
2022/09/28 00:13:34;;;;;;;6.65;4.00;;;10.10;87.70;;;;;;5060019;28;20125;-84
2022/09/28 00:16:01;;;;;;;8.00;4.22;;;10.10;87.70;;;;;;5060508;28;20445;-84
2022/09/28 00:18:28;;;;;;;6.38;3.92;;;10.00;87.70;;;;;;5076683;28;20490;-84
2022/09/28 00:21:11;;;;;;;10.05;4.28;;;10.00;87.70;;;;;;5076459;28;20440;-84
2022/09/28 00:26:21;;;;;;;8.18;4.13;;;10.00;87.70;;;;;;5078060;28;20035;-84
2022/09/28 00:28:50;;;;;;;7.43;4.45;;;10.00;87.70;;;;;;5076438;28;20037;-85
2022/09/28 00:31:17;;;;;;;7.80;4.00;;;9.90;87.70;;;;;;5076879;28;20028;-84
2022/09/28 00:33:43;;;;;;;6.65;3.95;;;9.90;87.70;;;;;;5043678;28;20024;-84
2022/09/28 00:36:09;;;;;;;8.38;4.43;;;9.90;88.60;;;;;;5076815;28;20528;-84
2022/09/28 00:38:34;;;;;;;7.10;4.35;;;9.90;87.70;;;;;;5043378;28;20060;-84
2022/09/28 00:41:00;;;;;;;8.48;4.20;;;9.90;87.80;;;;;;5076309;28;20028;-85
2022/09/28 00:43:26;;;;;;;7.13;4.35;;;9.80;87.90;;;;;;5059595;28;20134;-84
2022/09/28 00:46:09;;;;;;;8.43;4.72;;;9.80;88.00;;;;;;5043023;28;20021;-84
2022/09/28 00:48:38;;;;;;;8.75;4.55;;;9.80;88.20;;;;;;5075790;28;20073;-84
2022/09/28 00:51:07;;;;;;;8.15;4.47;;;9.80;88.20;;;;;;5077570;28;20020;-84
2022/09/28 00:53:39;;;;;;;7.90;4.43;;;9.80;88.30;;;;;;5075959;28;20029;-84
2022/09/28 00:56:13;;;;;;;9.55;5.15;;;9.80;88.30;;;;;;5075774;28;20029;-84
2022/09/28 00:58:45;;;;;;;10.00;5.50;;;9.90;88.50;;;;;;5075968;28;20019;-84
2022/09/28 01:01:11;;;;;;;8.85;5.47;;;9.80;88.50;;;;;;5075368;28;20468;-84
2022/09/28 01:03:40;;;;;;;11.88;5.90;;;9.80;88.50;;;;;;5075187;28;20099;-84
2022/09/28 01:06:07;;;;;;;11.13;6.15;;;9.90;88.50;;;;;;5058965;28;20029;-84
2022/09/28 01:08:34;;;;;;;9.23;5.15;;;9.90;88.70;;;;;;5076596;28;20468;-84
2022/09/28 01:11:00;;;;;;;10.05;5.43;;;9.80;88.70;;;;;;5075049;28;20028;-84
2022/09/28 01:13:27;;;;;;;10.75;5.70;;;9.90;88.70;;;;;;5074966;28;20049;-85
2022/09/28 01:16:06;;;;;;;11.68;5.75;;;9.90;88.80;;;;;;5057827;28;20028;-84
2022/09/28 01:18:57;;;;;;;18.05;7.20;;;9.90;88.70;;;;;;5074609;28;20028;-85
2022/09/28 01:21:24;;;;;;;9.82;5.88;;;10.00;88.80;;;;;;5074472;28;20024;-84
2022/09/28 01:24:09;;;;;;;10.40;5.97;;;10.00;88.90;;;;;;5074585;28;20035;-84
2022/09/28 01:26:54;;;;;;;13.90;7.43;;;10.00;88.90;;;;;;5074137;28;20469;-84
2022/09/28 01:29:45;;;;;;;12.27;6.50;;;10.00;88.80;;;;;;5074237;28;20032;-84
2022/09/28 01:32:43;;;;;;;15.57;6.82;;;10.10;88.80;;;;;;5074052;28;20056;-84
2022/09/28 01:35:15;;;;;;;15.63;6.38;;;10.10;88.70;;;;;;5073814;28;20032;-84
2022/09/28 01:38:04;;;;;;;11.48;6.78;;;10.10;88.50;;;;;;5073997;28;20128;-84
2022/09/28 01:40:31;;;;;;;11.50;6.47;;;10.10;88.70;;;;;;5046260;28;20094;-84
2022/09/28 01:43:13;;;;;;;12.50;6.97;;;10.10;88.80;;;;;;5057167;28;20048;-84
2022/09/28 01:46:03;;;;;;;13.52;7.53;;;10.10;88.80;;;;;;5074221;28;20023;-85
2022/09/28 01:48:42;;;;;;;12.35;7.03;;;10.20;89.50;;;;;;5074518;28;20117;-84
2022/09/28 01:51:15;;;;;;;12.07;6.63;;;10.20;88.50;;;;;;5073539;28;20119;-84
2022/09/28 01:53:47;;;;;;;11.75;6.35;;;10.20;88.20;;;;;;5073367;28;20067;-84
2022/09/28 01:56:42;;;;;;;11.38;6.85;;;10.20;88.20;;;;;;5073339;28;20028;-84
2022/09/28 01:59:15;;;;;;;12.77;6.60;;;10.20;88.30;;;;;;5069029;28;20044;-85
2022/09/28 02:02:05;;;;;;;14.88;7.05;;;10.20;88.10;;;;;;5073350;28;20484;-84
2022/09/28 02:04:35;;;;;;;14.23;7.00;;;10.20;87.80;;;;;;5073231;28;20366;-84
2022/09/28 02:07:06;;;;;;;10.88;6.18;;;10.20;87.50;;;;;;5073377;28;20082;-84
2022/09/28 02:09:42;;;;;;;9.70;6.18;;;10.20;87.60;;;;;;5073246;28;20021;-84
2022/09/28 02:12:21;;;;;;;13.35;6.30;;;10.20;87.40;;;;;;5079892;28;20389;-84
2022/09/28 02:14:53;;;;;;;11.20;6.18;;;10.10;88.10;;;;;;5094641;28;20028;-84
2022/09/28 02:17:19;;;;;;;12.40;6.20;;;10.10;87.30;;;;;;5076183;28;20020;-84
2022/09/28 02:19:44;;;;;;;13.25;5.88;;;10.00;87.30;;;;;;5043036;28;20372;-84
2022/09/28 02:22:42;;;;;;;11.10;5.78;;;10.00;87.40;;;;;;5043534;28;20035;-84
2022/09/28 02:25:08;;;;;;;11.30;6.28;;;10.00;87.40;;;;;;5076619;28;20023;-84
2022/09/28 02:27:44;;;;;;;12.38;6.95;;;10.00;87.40;;;;;;5076620;28;20050;-84
2022/09/28 02:30:10;;;;;;;13.45;6.68;;;10.00;87.30;;;;;;5076487;28;20043;-85
2022/09/28 02:32:42;;;;;;;11.13;5.70;;;10.00;87.60;;;;;;5076858;28;20032;-84
2022/09/28 02:35:11;;;;;;;9.90;5.40;;;10.00;87.60;;;;;;5076464;28;20035;-84
2022/09/28 02:37:37;;;;;;;11.93;6.15;;;10.00;87.60;;;;;;5076404;28;20420;-85
2022/09/28 02:40:11;;;;;;;10.50;5.38;;;10.00;87.70;;;;;;5076917;28;20036;-84
2022/09/28 02:42:59;;;;;;;9.95;5.60;;;10.00;87.70;;;;;;5076462;28;20032;-85
2022/09/28 02:45:49;;;;;;;8.55;5.32;;;10.00;87.80;;;;;;5076745;28;20020;-85
2022/09/28 02:48:21;;;;;;;8.43;4.88;;;10.00;87.80;;;;;;5076961;28;20020;-84
2022/09/28 02:51:28;;;;;;;11.07;4.88;;;10.00;87.80;;;;;;5076979;28;20043;-84
2022/09/28 02:54:24;;;;;;;10.80;5.57;;;10.00;87.80;;;;;;5044905;28;20080;-83
2022/09/28 02:57:16;;;;;;;10.27;5.70;;;9.90;87.90;;;;;;5076947;28;20036;-84
2022/09/28 02:59:59;;;;;;;9.90;5.57;;;9.90;88.10;;;;;;5076785;28;20062;-84
2022/09/28 03:02:34;;;;;;;11.88;5.63;;;9.80;88.40;;;;;;5095324;28;20569;-84
2022/09/28 03:05:19;;;;;;;10.32;5.75;;;9.80;88.40;;;;;;5076399;28;20032;-84
2022/09/28 03:08:12;;;;;;;7.68;5.30;;;9.90;88.60;;;;;;5077257;28;20017;-84
2022/09/28 03:11:13;;;;;;;10.95;6.15;;;9.90;88.80;;;;;;5077513;28;20020;-85
2022/09/28 03:13:39;;;;;;;12.98;6.30;;;9.90;88.90;;;;;;5054372;28;20130;-84
2022/09/28 03:16:20;;;;;;;13.82;6.57;;;9.90;89.00;;;;;;5060288;28;20050;-84
2022/09/28 03:18:48;;;;;;;11.77;7.47;;;9.90;89.00;;;;;;5059870;28;20029;-84
2022/09/28 03:21:14;;;;;;;12.73;7.28;;;9.80;88.90;;;;;;5076488;28;20028;-84
2022/09/28 03:23:41;;;;;;;13.32;7.15;;;9.90;88.90;;;;;;5076745;28;20039;-84
2022/09/28 03:26:09;;;;;;;13.10;6.70;;;9.90;88.90;;;;;;5060221;28;20024;-84
2022/09/28 03:28:35;;;;;;;11.85;6.78;;;9.90;88.90;;;;;;5079911;28;20008;-84
2022/09/28 03:31:01;;;;;;;12.15;7.45;;;9.90;88.90;;;;;;5064446;28;20535;-84
2022/09/28 03:33:27;;;;;;;19.08;7.47;;;9.90;89.00;;;;;;5047747;28;20040;-85
2022/09/28 03:35:53;;;;;;;13.10;6.78;;;9.90;89.80;;;;;;5079864;28;20024;-84
2022/09/28 03:38:19;;;;;;;14.55;7.22;;;9.90;89.00;;;;;;5079965;28;20035;-84
2022/09/28 03:40:55;;;;;;;12.13;6.90;;;9.90;88.80;;;;;;5079778;28;20476;-84
2022/09/28 03:43:21;;;;;;;12.80;7.43;;;9.90;88.90;;;;;;5079819;28;20095;-84
2022/09/28 03:45:54;;;;;;;13.93;7.38;;;9.90;88.90;;;;;;5079836;28;20496;-84
2022/09/28 03:48:21;;;;;;;;;;;10.00;88.90;;;;;;5064070;28;20024;-84
2022/09/28 03:50:47;;;;;;;12.65;6.20;;;10.00;89.00;;;;;;5079197;28;19908;-84
2022/09/28 03:53:12;;;;;;;11.50;6.13;;;10.00;88.90;;;;;;5062680;28;20036;-85
2022/09/28 03:55:39;;;;;;;10.35;5.75;;;10.00;89.00;;;;;;5063145;28;20077;-84
2022/09/28 03:58:06;;;;;;;11.82;6.00;;;10.00;89.00;;;;;;5046497;28;20036;-84
2022/09/28 04:00:31;;;;;;;10.60;5.95;;;10.00;89.00;;;;;;5063015;28;20510;-85
2022/09/28 04:02:59;;;;;;;13.48;6.88;;;10.00;89.10;;;;;;5079560;28;20103;-83
2022/09/28 04:05:25;;;;;;;9.98;5.95;;;10.00;89.00;;;;;;5062542;28;20035;-85
2022/09/28 04:07:55;;;;;;;11.55;6.10;;;10.00;89.00;;;;;;5062101;28;20028;-85
2022/09/28 04:10:20;;;;;;;9.80;5.90;;;10.00;88.90;;;;;;5062849;28;20028;-85
2022/09/28 04:12:54;;;;;;;10.38;5.68;;;10.00;89.00;;;;;;5062440;28;20044;-84
2022/09/28 04:15:22;;;;;;;12.43;6.53;;;10.00;88.90;;;;;;5063064;28;20131;-85
2022/09/28 04:17:50;;;;;;;13.40;5.82;;;10.00;88.90;;;;;;5062346;28;20028;-84
2022/09/28 04:20:16;;;;;;;10.82;5.78;;;10.00;89.00;;;;;;5062383;28;20028;-85
2022/09/28 04:22:43;;;;;;;9.80;5.70;;;10.00;89.20;;;;;;5079130;28;20055;-85
2022/09/28 04:25:09;;;;;;;11.05;5.70;;;9.90;89.20;;;;;;5062353;28;20027;-84
2022/09/28 04:30:21;;;;;;;11.38;5.30;;;10.00;89.20;;;;;;5081533;28;20090;-84
2022/09/28 04:32:48;;;;;;;10.07;5.20;;;9.90;89.00;;;;;;5062147;28;20210;-85
2022/09/28 04:35:14;;;;;;;8.50;5.13;;;9.90;89.10;;;;;;5096482;28;20432;-84
2022/09/28 04:37:40;;;;;;;9.75;5.00;;;9.90;89.90;;;;;;5078556;28;20026;-85
2022/09/28 04:40:07;;;;;;;10.10;4.95;;;9.90;89.20;;;;;;5060781;28;20097;-84
2022/09/28 04:42:34;;;;;;;7.50;4.47;;;9.90;89.20;;;;;;5061426;28;20032;-84
2022/09/28 04:45:01;;;;;;;8.07;4.15;;;9.90;89.00;;;;;;5061398;28;20056;-85
2022/09/28 04:47:29;;;;;;;8.25;4.43;;;9.90;88.80;;;;;;5078415;28;20028;-85
2022/09/28 04:49:55;;;;;;;11.30;4.78;;;9.90;88.80;;;;;;5061456;28;20384;-85
2022/09/28 04:52:21;;;;;;;8.20;4.22;;;9.90;88.80;;;;;;5045145;28;20094;-85
2022/09/28 04:54:46;;;;;;;7.82;3.88;;;9.90;88.70;;;;;;5045061;28;20020;-87
2022/09/28 04:57:12;;;;;;;6.15;3.78;;;9.80;88.70;;;;;;5061644;28;20028;-85
2022/09/28 04:59:41;;;;;;;9.05;3.40;;;9.90;88.60;;;;;;5045209;28;20034;-85
2022/09/28 05:02:07;;;;;;;9.25;3.92;;;9.80;88.60;;;;;;5061200;28;20028;-84
2022/09/28 05:04:33;;;;;;;6.50;3.83;;;9.80;88.50;;;;;;5044476;28;20016;-85
2022/09/28 05:06:59;;;;;;;7.88;3.80;;;9.80;88.60;;;;;;5044309;28;20066;-85
2022/09/28 05:09:25;;;;;;;6.35;3.80;;;9.80;88.50;;;;;;5060848;28;20020;-86
2022/09/28 05:11:52;;;;;;;7.45;3.40;;;9.80;88.30;;;;;;5060142;28;20055;-86
2022/09/28 05:14:20;;;;;;;7.03;3.28;;;9.80;88.30;;;;;;5077394;28;20036;-86
2022/09/28 05:16:47;;;;;;;6.90;3.40;;;9.80;88.20;;;;;;5061346;28;20087;-87
2022/09/28 05:19:13;;;;;;;6.82;3.28;;;9.80;88.40;;;;;;5060621;28;20035;-84
2022/09/28 05:21:39;;;;;;;6.75;3.22;;;9.80;88.30;;;;;;5076807;28;20024;-84
2022/09/28 05:24:06;;;;;;;8.15;3.20;;;9.80;88.20;;;;;;5077002;28;20027;-84
2022/09/28 05:26:32;;;;;;;4.75;2.95;;;9.80;87.90;;;;;;5060576;28;20028;-86
2022/09/28 05:28:58;;;;;;;4.47;2.60;;;9.80;87.80;;;;;;5060578;28;20484;-84
2022/09/28 05:31:26;;;;;;;7.15;3.20;;;9.80;87.90;;;;;;5094889;28;20039;-87
2022/09/28 05:33:52;;;;;;;4.90;2.67;;;9.70;87.80;;;;;;5076804;28;20047;-86
2022/09/28 05:36:18;;;;;;;6.38;3.20;;;9.70;87.90;;;;;;5059549;28;20024;-87
2022/09/28 05:38:44;;;;;;;8.55;3.08;;;9.70;87.90;;;;;;5076767;28;20429;-86
2022/09/28 05:41:10;;;;;;;5.45;2.70;;;9.60;88.00;;;;;;5060581;28;20423;-84
2022/09/28 05:43:37;;;;;;;4.22;2.80;;;9.70;88.10;;;;;;5059957;28;20024;-83
2022/09/28 05:46:03;;;;;;;7.38;3.15;;;9.70;88.00;;;;;;5075623;28;20016;-84
2022/09/28 05:48:29;;;;;;;6.28;2.58;;;9.70;88.10;;;;;;5076868;28;20035;-87
2022/09/28 05:50:57;;;;;;;2.88;2.13;;;9.60;88.10;;;;;;5060113;28;20032;-87
2022/09/28 05:53:23;;;;;;;7.07;2.95;;;9.60;88.20;;;;;;5076901;28;20430;-87
2022/09/28 05:55:49;;;;;;;6.53;2.60;;;9.70;88.30;;;;;;5058271;28;20024;-86
2022/09/28 05:58:15;;;;;;;4.15;2.35;;;9.60;88.10;;;;;;5074603;28;20028;-86
2022/09/28 06:00:41;;;;;;;4.55;2.00;;;9.60;88.50;;;;;;5071367;28;20027;-86
2022/09/28 06:03:11;;;;;;;4.57;2.40;;;9.60;88.60;;;;;;5071401;28;20469;-87
2022/09/28 06:05:38;;;;;;;5.25;2.10;;;9.60;88.70;;;;;;5071213;28;20020;-86
2022/09/28 06:08:05;;;;;;;4.05;1.90;;;9.50;89.20;;;;;;5071632;28;20029;-87
2022/09/28 06:10:32;;;;;;;6.95;2.35;;;9.50;89.20;;;;;;5072205;28;20055;-84
2022/09/28 06:12:58;;;;;;;3.50;2.17;;;9.50;89.40;;;;;;5071958;28;20135;-86
2022/09/28 06:15:27;;;;;;;6.32;2.03;;;9.60;89.60;;;;;;5072420;28;20044;-81
2022/09/28 06:18:09;;;;;;;3.67;2.05;;;9.60;89.60;;;;;;5072318;28;20024;-84
2022/09/28 06:20:41;;;;;;;5.80;2.43;;;9.60;89.80;;;;;;5081671;28;20380;-84
2022/09/28 06:23:12;;;;;;;5.78;2.10;;;9.70;89.70;;;;;;5097587;28;20084;-84
2022/09/28 06:25:38;;;;;;;4.40;2.33;;;9.70;89.90;;;;;;5095187;28;20023;-84
2022/09/28 06:28:08;;;;;;;3.50;2.25;;;9.70;89.80;;;;;;5096923;28;20070;-84
2022/09/28 06:30:37;;;;;;;5.03;2.05;;;9.80;90.00;;;;;;5095853;28;20022;-84
2022/09/28 06:33:04;;;;;;;3.90;1.92;;;9.80;90.00;;;;;;5095045;28;20019;-84
2022/09/28 06:35:31;;;;;;;2.70;1.67;;;9.80;90.30;;;;;;5096303;28;20034;-84
2022/09/28 06:37:58;;;;;;;5.80;1.75;;;9.90;90.00;;;;;;5095247;28;20483;-84
2022/09/28 06:40:24;;;;;;;3.25;2.00;;;9.90;90.00;;;;;;5115293;28;20020;-87
2022/09/28 06:42:58;;;;;;;3.65;2.05;;;9.90;90.00;;;;;;5081695;28;20514;-87
2022/09/28 06:45:25;;;;;;;4.60;1.80;;;10.00;90.10;;;;;;5115665;22;20100;-71
2022/09/28 06:47:56;;;;;;;6.82;2.42;;;10.00;90.10;;;;;;5093180;28;20483;-72
2022/09/28 06:50:24;;;;;;;3.05;1.73;;;10.00;90.10;;;;;;5092156;28;20052;-71
2022/09/28 06:52:53;;;;;;;4.63;1.80;;;10.00;90.00;;;;;;5093104;28;20024;-71
2022/09/28 06:55:20;;;;;;;2.95;2.00;;;10.10;90.00;;;;;;5092439;28;20024;-71
2022/09/28 06:57:46;;;;;;;4.82;1.75;;;10.00;89.80;;;;;;5093065;28;20024;-72
2022/09/28 07:00:12;;;;;;;5.25;1.77;;;10.00;89.80;;;;;;5092043;28;20040;-71
2022/09/28 07:02:38;;;;;;;3.45;1.80;;;10.00;89.70;;;;;;5093881;28;20024;-71
2022/09/28 07:05:06;;;;;;;6.22;2.00;;;10.00;89.80;;;;;;5097031;28;20121;-72
2022/09/28 07:07:34;;;;;;;3.83;1.75;;;10.00;89.80;;;;;;5096964;28;20021;-72
2022/09/28 07:09:59;;;;;;;4.03;2.00;;;10.00;89.90;;;;;;5096108;28;20024;-72
2022/09/28 07:12:25;;;;;;;4.00;1.85;;;10.00;89.90;;;;;;5096878;28;20025;-72
2022/09/28 07:14:56;;;;;;;6.90;2.03;;;10.00;89.90;;;;;;5096821;28;20040;-72
2022/09/28 07:17:22;;;;;;;2.92;1.80;;;10.00;89.80;;;;;;5096858;28;20028;-72
2022/09/28 07:19:51;;;;;;;4.97;1.80;;;10.00;89.70;;;;;;5079128;28;20036;-72
2022/09/28 07:22:18;;;;;;;4.38;1.98;;;10.10;89.70;;;;;;5096623;28;20024;-71
2022/09/28 07:24:47;;;;;;;4.63;1.80;;;10.10;89.80;;;;;;5096606;28;20024;-72
2022/09/28 07:27:16;;;;;;;3.53;1.70;;;10.20;89.90;;;;;;5096603;28;20044;-71
2022/09/28 07:29:42;;;;;;;6.00;1.95;;;10.20;90.00;;;;;;5078850;28;20025;-72
2022/09/28 07:32:08;;;;;;;5.43;1.50;;;10.30;90.00;;;;;;5096512;28;20040;-72
2022/09/28 07:34:40;;;;;;;3.20;1.77;;;10.30;89.70;;;;;;5096407;28;20033;-72
2022/09/28 07:37:10;;;;;;;2.72;1.70;;;10.30;89.50;;;;;;5095255;28;20040;-72
2022/09/28 07:41:10;;;;;;;3.97;2.15;;;10.40;89.80;;;;;;5095539;28;20016;-72
2022/09/28 07:42:22;;;;;;;3.63;1.50;;;10.40;89.80;;;;;;5096246;28;20045;-72
2022/09/28 07:44:51;;;;;;;3.17;1.60;;;10.50;89.60;;;;;;5078494;28;20410;-72
2022/09/28 07:47:17;;;;;;;4.40;1.70;;;10.50;89.20;;;;;;5096375;28;20034;-72
2022/09/28 07:49:43;;;;;;;2.97;1.75;;;10.50;89.40;;;;;;5096338;28;20017;-72
2022/09/28 07:52:09;;;;;;;3.50;1.52;;;10.60;89.40;;;;;;5096288;28;20060;-72
2022/09/28 07:54:35;;;;;;;6.80;2.00;;;10.60;89.60;;;;;;5095330;28;20033;-72
2022/09/28 07:57:05;;;;;;;3.67;1.95;;;10.60;89.70;;;;;;5096089;28;20387;-72
2022/09/28 07:59:31;;;;;;;3.22;1.80;;;10.60;89.20;;;;;;5096193;28;20025;-72
2022/09/28 08:01:58;;;;;;;6.63;2.00;;;10.70;89.00;;;;;;5095914;28;20047;-72
2022/09/28 08:04:24;;;;;;;3.90;1.67;;;10.80;88.40;;;;;;5095956;28;20024;-72
2022/09/28 08:06:49;;;;;;;2.28;1.73;;;10.80;88.50;;;;;;5095902;28;20077;-72
2022/09/28 08:09:15;;;;;;;6.03;1.95;;;10.90;88.20;;;;;;5095803;28;20044;-71
2022/09/28 08:11:42;;;;;;;5.82;1.75;;;11.00;88.30;;;;;;5095809;28;20039;-72
2022/09/28 08:14:11;;;;;;;2.45;1.70;;;11.00;88.30;;;;;;5094361;28;20020;-72
2022/09/28 08:16:37;;;;;;;2.20;1.40;;;11.20;88.50;;;;;;5095863;28;20088;-72
2022/09/28 08:19:02;;;;;;;5.18;1.90;;;11.10;86.70;;;;;;5095642;28;20033;-72
2022/09/28 08:21:46;;;;;;;4.60;1.50;;;11.20;87.00;;;;;;5095534;28;20036;-73
2022/09/28 08:24:14;;;;;;;4.60;1.60;;;11.30;87.20;;;;;;5094825;28;20039;-72
2022/09/28 08:26:41;;;;;;;4.22;1.40;;;11.40;87.20;;;;;;5095446;28;20021;-72
2022/09/28 08:29:07;;;;;;;2.90;1.70;;;11.50;87.20;;;;;;5095438;28;20536;-72
2022/09/28 08:31:32;;;;;;;1.90;1.42;;;11.60;87.20;;;;;;5094227;28;20056;-72
2022/09/28 08:33:58;;;;;;;2.15;1.40;;;11.70;86.30;;;;;;5094492;28;20074;-73
2022/09/28 08:36:24;;;;;;;2.45;1.60;;;11.80;86.50;;;;;;5095317;28;20029;-72
2022/09/28 08:39:35;;;;;;;;;;;;;;;;;;;;;
2022/09/28 08:42:20;;;;;;;4.18;1.80;;;12.00;85.90;;;;;;5095157;28;20056;-73
2022/09/28 08:44:50;;;;;;;5.60;1.58;;;12.10;85.30;;;;;;5100806;28;20089;-72
2022/09/28 08:50:10;;;;;;;5.75;1.95;;;12.30;85.30;;;;;;5115422;28;20049;-72
2022/09/28 08:52:39;;;;;;;2.33;1.30;;;12.40;84.50;;;;;;5115361;28;20386;-72
2022/09/28 08:55:16;;;;;;;3.53;1.92;;;12.40;83.90;;;;;;5097287;28;20024;-72
2022/09/28 08:57:57;;;;;;;2.58;1.67;;;12.50;83.50;;;;;;5115386;28;20027;-72
2022/09/28 09:00:30;;;;;;;2.92;1.70;;;12.50;83.70;;;;;;5097313;28;20024;-72
2022/09/28 09:02:56;;;;;;;3.92;1.65;;;12.70;83.80;;;;;;5115077;28;20043;-71
2022/09/28 09:05:36;;;;;;;2.50;1.90;;;12.80;83.60;;;;;;5115054;28;20028;-71
2022/09/28 09:08:59;;;;;;;2.67;1.65;;;12.80;82.50;;;;;;5115027;28;20028;-71
2022/09/28 09:11:47;;;;;;;1.70;1.48;;;12.90;82.50;;;;;;5053005;28;20025;-71
2022/09/28 09:14:26;;;;;;;2.50;1.65;;;12.90;82.10;;;;;;5052870;28;20036;-71
2022/09/28 09:17:02;;;;;;;17.58;7.05;;;13.00;82.30;;;;;;5104847;28;20103;-71
2022/09/28 09:20:09;;;;;;;4.30;2.03;;;13.00;82.30;;;;;;5114819;28;20024;-71
2022/09/28 09:23:24;;;;;;;3.30;1.58;;;13.10;82.30;;;;;;5092663;28;20052;-72
2022/09/28 09:25:55;;;;;;;3.33;1.70;;;13.10;81.50;;;;;;5105419;28;20058;-71
2022/09/28 09:28:55;;;;;;;4.55;1.80;;;13.00;81.10;;;;;;5114590;28;20022;-71
2022/09/28 09:31:37;;;;;;;1.98;1.63;;;12.90;81.10;;;;;;5114596;28;20046;-71
2022/09/28 09:34:19;;;;;;;3.20;1.52;;;12.90;81.80;;;;;;5114528;28;20035;-71
2022/09/28 09:36:50;;;;;;;3.25;1.80;;;12.90;82.00;;;;;;5114652;28;20024;-71
2022/09/28 09:39:38;;;;;;;4.18;1.90;;;13.00;82.60;;;;;;5114403;28;20032;-71
2022/09/28 09:42:40;;;;;;;3.28;1.90;;;13.20;83.00;;;;;;5114312;28;20020;-71
2022/09/28 09:45:24;;;;;;;4.50;3.35;;;13.40;82.80;;;;;;5114153;28;20094;-71
2022/09/28 09:48:02;;;;;;;5.50;2.95;;;13.70;81.60;;;;;;5114262;28;20054;-71
2022/09/28 09:50:45;;;;;;;5.22;2.60;;;13.80;81.30;;;;;;5114419;28;20085;-71
2022/09/28 09:53:37;;;;;;;3.40;1.92;;;13.80;79.60;;;;;;5114340;28;20027;-72
2022/09/28 09:56:39;;;;;;;4.30;2.50;;;13.80;77.80;;;;;;5114144;28;20042;-72
2022/09/28 09:59:39;;;;;;;3.58;2.08;;;13.80;78.30;;;;;;5090894;28;20036;-71
2022/09/28 10:02:30;;;;;;;4.45;2.20;;;13.90;78.60;;;;;;5101303;28;20036;-72
2022/09/28 10:05:13;;;;;;;1.63;1.35;;;14.00;79.70;;;;;;5113772;28;20074;-71
2022/09/28 10:07:49;;;;;;;1.35;1.10;;;14.20;79.10;;;;;;5113986;28;20016;-71
2022/09/28 10:10:22;;;;;;;1.67;1.05;;;14.20;77.90;;;;;;5113667;28;20072;-71
2022/09/28 10:12:51;;;;;;;1.92;0.98;;;14.20;76.90;;;;;;5113658;28;20026;-70
2022/09/28 10:15:26;;;;;;;2.33;1.23;;;14.20;76.50;;;;;;5113564;28;20035;-71
2022/09/28 10:17:59;;;;;;;2.63;1.20;;;14.30;74.80;;;;;;5113541;28;20055;-71
2022/09/28 10:20:26;;;;;;;2.15;1.20;;;14.30;74.90;;;;;;5113552;28;20048;-71
2022/09/28 10:22:55;;;;;;;2.05;1.20;;;14.40;76.20;;;;;;5113579;28;20024;-71
2022/09/28 10:25:20;;;;;;;1.83;1.00;;;14.50;76.60;;;;;;5113669;28;20028;-71
2022/09/28 10:27:51;;;;;;;2.22;1.05;;;14.70;75.90;;;;;;5113670;28;20055;-72
2022/09/28 10:30:19;;;;;;;2.85;1.40;;;14.80;73.40;;;;;;5113613;28;20031;-71
2022/09/28 10:32:47;;;;;;;1.88;0.98;;;14.90;74.10;;;;;;5113593;28;20035;-72
2022/09/28 10:35:19;;;;;;;1.67;0.82;;;15.00;73.20;;;;;;5113536;28;20028;-71
2022/09/28 10:38:21;;;;;;;3.63;1.20;;;15.00;71.10;;;;;;5112768;28;20056;-71
2022/09/28 10:40:55;;;;;;;3.40;1.00;;;14.90;71.40;;;;;;5051364;28;20072;-71
2022/09/28 10:43:24;;;;;;;2.58;1.70;;;14.70;73.50;;;;;;5104649;28;20039;-72
2022/09/28 10:46:12;;;;;;;2.13;1.40;;;14.60;73.60;;;;;;5113220;28;20044;-71
2022/09/28 10:48:51;;;;;;;2.08;1.50;;;14.60;74.30;;;;;;5113628;28;20083;-71
2022/09/28 10:51:17;;;;;;;3.85;1.60;;;14.70;74.60;;;;;;5113425;28;20032;-71
2022/09/28 10:53:59;;;;;;;2.40;1.60;;;14.80;74.40;;;;;;5113423;28;20054;-72
2022/09/28 10:56:38;;;;;;;2.88;1.65;;;14.80;73.40;;;;;;5113391;28;20020;-72
2022/09/28 10:59:55;;;;;;;2.78;1.60;;;14.70;73.70;;;;;;5113352;28;20024;-71
2022/09/28 11:02:26;;;;;;;2.75;1.67;;;14.60;73.90;;;;;;5062174;28;20037;-71
2022/09/28 11:04:57;;;;;;;2.25;1.55;;;14.60;74.60;;;;;;5113351;28;20129;-71
2022/09/28 11:07:26;;;;;;;2.28;1.48;;;14.50;74.20;;;;;;5113280;28;20031;-71
2022/09/28 11:09:53;;;;;;;5.30;2.20;;;14.40;73.20;;;;;;5113269;28;20024;-71
2022/09/28 11:12:25;;;;;;;2.83;1.63;;;14.40;74.40;;;;;;5113242;28;20110;-71
2022/09/28 11:15:01;;;;;;;1.90;1.60;;;14.50;74.80;;;;;;5113396;28;20043;-71
2022/09/28 11:17:31;;;;;;;3.13;1.75;;;14.50;74.50;;;;;;5113210;28;20016;-71
2022/09/28 11:20:22;;;;;;;2.10;1.80;;;14.50;75.00;;;;;;5113147;28;20020;-71
2022/09/28 11:22:47;;;;;;;2.97;1.58;;;14.50;75.30;;;;;;5113276;28;20032;-71
2022/09/28 11:25:22;;;;;;;2.63;1.40;;;14.50;75.20;;;;;;5113121;28;20463;-71
2022/09/28 11:27:50;;;;;;;3.72;1.65;;;14.50;74.90;;;;;;5113154;28;20083;-71
2022/09/28 11:30:28;;;;;;;1.75;1.58;;;14.50;75.30;;;;;;5113009;28;20047;-71
2022/09/28 11:33:01;;;;;;;1.40;1.30;;;14.60;75.50;;;;;;5113043;28;20032;-71
2022/09/28 11:35:59;;;;;;;1.20;1.10;;;14.60;74.90;;;;;;5113053;28;20103;-71
2022/09/28 11:38:59;;;;;;;2.58;1.25;;;14.60;75.40;;;;;;5090585;28;20390;-71
2022/09/28 11:41:46;;;;;;;2.47;1.35;;;14.60;75.60;;;;;;5101813;28;20095;-71
2022/09/28 11:44:43;;;;;;;1.30;1.20;;;14.60;75.30;;;;;;5112784;28;20036;-71
2022/09/28 11:47:15;;;;;;;2.05;1.15;;;14.70;75.40;;;;;;5113089;28;20081;-72
2022/09/28 11:49:43;;;;;;;2.15;1.33;;;14.70;75.60;;;;;;5116387;28;20024;-70
2022/09/28 11:52:42;;;;;;;6.03;1.40;;;14.60;75.60;;;;;;5116511;28;20044;-72
2022/09/28 11:55:33;;;;;;;3.00;1.50;;;14.60;76.20;;;;;;5116489;28;20039;-72
2022/09/28 11:58:24;;;;;;;3.47;1.55;;;14.50;77.30;;;;;;5116057;28;20040;-73
2022/09/28 12:00:56;;;;;;;3.03;1.70;;;14.50;76.70;;;;;;5116276;28;20050;-72
2022/09/28 12:03:34;;;;;;;3.13;1.92;;;14.50;77.00;;;;;;5116380;28;20072;-71
2022/09/28 12:06:05;;;;;;;2.78;1.80;;;14.70;77.40;;;;;;5116276;28;20030;-72
2022/09/28 12:08:39;;;;;;;3.65;1.67;;;14.90;77.70;;;;;;5116246;28;20020;-72
2022/09/28 12:11:20;;;;;;;2.03;1.45;;;15.10;77.00;;;;;;5116201;28;20474;-72
2022/09/28 12:13:48;;;;;;;2.17;1.60;;;15.10;75.20;;;;;;5116264;28;20043;-72
2022/09/28 12:16:27;;;;;;;2.08;1.60;;;15.10;75.70;;;;;;5116051;28;20066;-73
2022/09/28 12:19:22;;;;;;;3.10;1.73;;;15.10;75.80;;;;;;5116048;28;20059;-72
2022/09/28 12:22:30;;;;;;;2.28;1.70;;;15.00;76.00;;;;;;5112670;28;20052;-72
2022/09/28 12:24:57;;;;;;;2.33;1.92;;;15.00;76.20;;;;;;5081757;28;20042;-72
2022/09/28 12:27:52;;;;;;;2.85;1.70;;;14.90;76.90;;;;;;5115818;28;20032;-73
2022/09/28 12:30:20;;;;;;;3.67;1.80;;;15.00;77.20;;;;;;5115765;28;20020;-71
2022/09/28 12:32:54;;;;;;;2.58;1.70;;;15.00;77.90;;;;;;5115726;28;20024;-72
2022/09/28 12:35:38;;;;;;;3.08;1.70;;;15.10;77.90;;;;;;5115887;28;20028;-74
2022/09/28 12:38:21;;;;;;;3.33;1.60;;;15.20;77.80;;;;;;5115811;28;20028;-72
2022/09/28 12:41:05;;;;;;;2.78;1.48;;;15.30;77.50;;;;;;5115701;28;20065;-72
2022/09/28 12:43:58;;;;;;;1.52;1.20;;;15.30;76.80;;;;;;5115568;28;20028;-73
2022/09/28 12:46:32;;;;;;;1.67;1.30;;;15.30;75.30;;;;;;5115411;28;20055;-73
2022/09/28 12:49:16;;;;;;;1.50;1.10;;;15.30;75.30;;;;;;5115601;28;20032;-73
2022/09/28 12:51:59;;;;;;;2.13;1.40;;;15.20;74.10;;;;;;5115384;28;20024;-73
2022/09/28 12:54:56;;;;;;;;;;;15.20;74.70;;;;;;5115753;28;20024;-73
2022/09/28 12:57:53;;;;;;;1.30;1.17;;;15.10;74.50;;;;;;5070371;28;20507;-73
2022/09/28 13:00:21;;;;;;;2.42;1.48;;;15.20;76.10;;;;;;5114434;28;20058;-73
2022/09/28 13:03:08;;;;;;;2.25;1.30;;;15.30;76.70;;;;;;5115079;28;20020;-72
2022/09/28 13:06:07;;;;;;;3.20;1.27;;;15.40;76.50;;;;;;5115087;28;20028;-72
2022/09/28 13:09:11;;;;;;;1.70;1.20;;;15.40;76.30;;;;;;5115197;28;20024;-72
2022/09/28 13:12:01;;;;;;;0.90;0.63;;;15.30;76.20;;;;;;5114983;28;20040;-72
2022/09/28 13:14:32;;;;;;;1.20;0.60;;;15.20;75.70;;;;;;5114960;28;20079;-72
2022/09/28 13:17:04;;;;;;;1.67;0.65;;;15.10;75.10;;;;;;5115028;28;20024;-72
2022/09/28 13:19:47;;;;;;;0.82;0.43;;;15.00;74.50;;;;;;5114846;28;20032;-72
2022/09/28 13:22:21;;;;;;;1.50;0.75;;;14.90;73.70;;;;;;5114681;28;20036;-71
2022/09/28 13:24:49;;;;;;;1.10;0.90;;;14.80;74.00;;;;;;5114905;28;20024;-72
2022/09/28 13:27:27;;;;;;;2.35;0.85;;;14.70;74.30;;;;;;5114805;28;20016;-72
2022/09/28 13:29:53;;;;;;;3.33;1.23;;;14.60;74.40;;;;;;5114617;28;20020;-72
2022/09/28 13:32:19;;;;;;;2.33;1.55;;;14.50;75.30;;;;;;5114572;28;20102;-72